Time;durP1;ratioP1;P1;durP2;ratioP2;P2;SDS_P1;SDS_P2;PMS_P1;PMS_P2;Temp;Humidity;BMP_temperature;BMP_pressure;BME280_temperature;BME280_humidity;BME280_pressure;Samples;Min_cycle;Max_cycle;Signal;HPM_P1;HPM_P2
2024/03/27 00:01:40;;;;;;;14.02;5.63;;;;;;;8.53;100.00;98541.72;5093246;28;20028;-75
2024/03/27 00:04:06;;;;;;;13.15;5.00;;;;;;;8.57;100.00;98540.34;5093110;28;20028;-74
2024/03/27 00:06:31;;;;;;;9.15;5.07;;;;;;;8.60;100.00;98529.41;5074942;28;20028;-74
2024/03/27 00:08:56;;;;;;;12.90;5.25;;;;;;;8.67;100.00;98529.47;5092891;28;20032;-73
2024/03/27 00:11:24;;;;;;;7.82;4.30;;;;;;;8.75;100.00;98521.44;5093173;28;20028;-73
2024/03/27 00:13:50;;;;;;;10.73;4.20;;;;;;;8.83;100.00;98526.63;5074728;28;20154;-74
2024/03/27 00:16:15;;;;;;;12.68;4.10;;;;;;;8.91;100.00;98531.00;5093164;28;20440;-74
2024/03/27 00:18:41;;;;;;;8.77;4.25;;;;;;;8.96;100.00;98523.34;5092836;28;20082;-73
2024/03/27 00:21:06;;;;;;;6.53;3.90;;;;;;;8.98;100.00;98521.31;5092867;28;20024;-74
2024/03/27 00:23:33;;;;;;;6.43;3.80;;;;;;;8.98;100.00;98516.81;5093206;28;20034;-73
2024/03/27 00:25:59;;;;;;;9.52;4.25;;;;;;;8.99;100.00;98520.31;5092766;28;20031;-74
2024/03/27 00:28:24;;;;;;;11.48;4.38;;;;;;;8.98;100.00;98519.47;5092985;28;20114;-73
2024/03/27 00:30:50;;;;;;;14.10;4.18;;;;;;;8.99;100.00;98512.34;5074518;28;20028;-75
2024/03/27 00:33:16;;;;;;;12.07;4.05;;;;;;;8.99;100.00;98520.31;5092807;28;20028;-74
2024/03/27 00:35:58;;;;;;;7.28;3.70;;;;;;;9.03;100.00;98512.78;5093036;28;20472;-74
2024/03/27 00:38:24;;;;;;;11.10;3.55;;;;;;;9.03;100.00;98510.13;5092769;28;20131;-73
2024/03/27 00:40:49;;;;;;;5.15;3.10;;;;;;;9.05;100.00;98513.44;5092824;28;20012;-74
2024/03/27 00:43:16;;;;;;;11.45;3.65;;;;;;;9.06;100.00;98509.75;5092729;28;20369;-73
2024/03/27 00:45:42;;;;;;;9.23;3.35;;;;;;;9.09;100.00;98509.38;5077876;28;20427;-74
2024/03/27 00:48:07;;;;;;;10.38;3.42;;;;;;;9.12;100.00;98511.66;5096330;28;20051;-73
2024/03/27 00:50:32;;;;;;;8.02;3.67;;;;;;;9.14;100.00;98510.47;5096209;28;20027;-74
2024/03/27 00:52:58;;;;;;;9.55;3.53;;;;;;;9.16;100.00;98510.28;5096462;28;20032;-75
2024/03/27 00:55:23;;;;;;;6.90;3.10;;;;;;;9.16;100.00;98504.97;5096153;28;20020;-73
2024/03/27 00:57:49;;;;;;;12.02;4.43;;;;;;;9.15;100.00;98501.53;5096158;28;20468;-74
2024/03/27 01:00:16;;;;;;;4.45;3.13;;;;;;;9.14;100.00;98493.75;5077917;28;20384;-74
2024/03/27 01:02:43;;;;;;;6.65;3.60;;;;;;;9.12;100.00;98495.75;5096152;28;20107;-73
2024/03/27 01:05:08;;;;;;;8.95;3.10;;;;;;;9.11;100.00;98491.47;5095979;28;20024;-74
2024/03/27 01:07:34;;;;;;;6.93;3.30;;;;;;;9.10;100.00;98490.63;5096097;28;20032;-74
2024/03/27 01:09:59;;;;;;;8.88;3.13;;;;;;;9.09;100.00;98490.81;5096311;28;20039;-74
2024/03/27 01:12:25;;;;;;;7.10;3.10;;;;;;;9.10;100.00;98490.63;5095800;28;20020;-73
2024/03/27 01:14:51;;;;;;;9.05;3.20;;;;;;;9.11;100.00;98484.31;5095943;28;20032;-73
2024/03/27 01:17:17;;;;;;;10.15;3.35;;;;;;;9.12;100.00;98482.47;5095562;28;20055;-74
2024/03/27 01:19:42;;;;;;;6.40;2.88;;;;;;;9.12;100.00;98472.72;5095974;28;20028;-73
2024/03/27 01:22:07;;;;;;;10.88;3.42;;;;;;;9.13;100.00;98478.84;5095598;28;20027;-74
2024/03/27 01:24:33;;;;;;;12.48;3.00;;;;;;;9.14;100.00;98481.28;5077423;28;20039;-74
2024/03/27 01:26:58;;;;;;;7.88;3.40;;;;;;;9.15;100.00;98471.50;5095743;28;20036;-74
2024/03/27 01:29:23;;;;;;;5.20;3.05;;;;;;;9.15;100.00;98476.81;5095510;28;20024;-73
2024/03/27 01:31:49;;;;;;;7.25;3.00;;;;;;;9.16;100.00;98468.66;5096000;28;20024;-74
2024/03/27 01:34:14;;;;;;;13.43;4.03;;;;;;;9.21;100.00;98467.28;5077370;28;20040;-73
2024/03/27 01:36:39;;;;;;;5.65;2.88;;;;;;;9.23;100.00;98468.75;5077629;28;20039;-75
2024/03/27 01:39:05;;;;;;;5.47;3.22;;;;;;;9.23;100.00;98463.44;5095288;28;20376;-75
2024/03/27 01:41:30;;;;;;;5.45;2.97;;;;;;;9.25;100.00;98466.72;5077342;28;20111;-76
2024/03/27 01:43:55;;;;;;;8.35;3.10;;;;;;;9.26;100.00;98465.72;5095478;28;20112;-74
2024/03/27 01:46:23;;;;;;;8.63;2.80;;;;;;;9.34;100.00;98470.06;5095480;28;20389;-73
2024/03/27 01:48:49;;;;;;;7.85;2.80;;;;;;;9.38;100.00;98457.25;5095188;28;20553;-74
2024/03/27 01:51:14;;;;;;;5.05;2.40;;;;;;;9.43;100.00;98453.00;5094804;28;20032;-73
2024/03/27 01:53:40;;;;;;;6.43;2.33;;;;;;;9.48;100.00;98449.78;5095017;28;20125;-73
2024/03/27 01:56:06;;;;;;;6.20;2.45;;;;;;;9.51;100.00;98450.22;5094315;28;20364;-74
2024/03/27 01:58:32;;;;;;;9.57;2.35;;;;;;;9.51;100.00;98442.28;5060616;28;20036;-74
2024/03/27 02:00:57;;;;;;;7.78;2.60;;;;;;;9.49;100.00;98431.03;5076457;28;20493;-74
2024/03/27 02:03:23;;;;;;;4.80;2.47;;;;;;;9.47;100.00;98432.22;5095349;28;20173;-73
2024/03/27 02:05:48;;;;;;;6.75;2.60;;;;;;;9.45;100.00;98428.91;5094977;28;20036;-73
2024/03/27 02:08:14;;;;;;;7.90;2.72;;;;;;;9.46;100.00;98430.56;5094827;28;20024;-73
2024/03/27 02:10:39;;;;;;;4.50;2.25;;;;;;;9.46;100.00;98425.25;5094733;28;20039;-74
2024/03/27 02:13:05;;;;;;;6.82;2.70;;;;;;;9.45;100.00;98426.28;5094507;28;20032;-73
2024/03/27 02:15:30;;;;;;;6.20;2.40;;;;;;;9.45;100.00;98419.16;5094469;28;20043;-73
2024/03/27 02:17:55;;;;;;;9.55;2.42;;;;;;;9.46;100.00;98417.31;5076297;28;20056;-73
2024/03/27 02:20:21;;;;;;;5.40;2.40;;;;;;;9.45;100.00;98415.66;5076282;28;20031;-73
2024/03/27 02:22:47;;;;;;;3.90;2.17;;;;;;;9.45;100.00;98421.81;5094953;28;20098;-73
2024/03/27 02:25:20;;;;;;;4.35;1.95;;;;;;;9.45;100.00;98420.97;5094329;28;20101;-73
2024/03/27 02:27:46;;;;;;;8.20;2.53;;;;;;;9.44;100.00;98429.94;5094460;28;20090;-73
2024/03/27 02:30:11;;;;;;;6.28;2.65;;;;;;;9.43;100.00;98433.59;5094483;28;20422;-73
2024/03/27 02:32:36;;;;;;;5.50;2.15;;;;;;;9.42;100.00;98430.16;5094233;28;20028;-74
2024/03/27 02:35:03;;;;;;;6.07;2.67;;;;;;;9.44;100.00;98425.47;5094434;28;20023;-74
2024/03/27 02:37:28;;;;;;;6.45;2.25;;;;;;;9.44;100.00;98430.75;5076074;28;20032;-73
2024/03/27 02:39:54;;;;;;;6.82;2.53;;;;;;;9.45;100.00;98434.22;5094094;28;20054;-73
2024/03/27 02:42:19;;;;;;;6.38;2.50;;;;;;;9.44;100.00;98436.06;5094174;28;20035;-73
2024/03/27 02:44:44;;;;;;;5.43;2.15;;;;;;;9.43;100.00;98433.59;5094228;28;20035;-73
2024/03/27 02:47:10;;;;;;;11.00;2.72;;;;;;;9.44;100.00;98433.41;5094102;28;20028;-73
2024/03/27 02:49:35;;;;;;;6.93;2.58;;;;;;;9.44;100.00;98427.31;5076100;28;20032;-73
2024/03/27 02:52:01;;;;;;;7.15;2.65;;;;;;;9.42;100.00;98429.31;5075671;28;20051;-73
2024/03/27 02:54:26;;;;;;;5.95;2.55;;;;;;;9.37;100.00;98424.56;5094071;28;20020;-74
2024/03/27 02:56:51;;;;;;;9.07;2.85;;;;;;;9.31;100.00;98425.34;5094155;28;20024;-75
2024/03/27 02:59:17;;;;;;;4.68;2.38;;;;;;;9.22;100.00;98424.63;5075650;28;20472;-74
2024/03/27 03:01:42;;;;;;;7.00;2.70;;;;;;;9.12;100.00;98419.66;5075928;28;20185;-74
2024/03/27 03:04:07;;;;;;;10.43;3.15;;;;;;;9.03;100.00;98418.09;5093742;28;20471;-74
2024/03/27 03:06:35;;;;;;;9.57;3.15;;;;;;;8.97;100.00;98411.75;5093640;28;20032;-74
2024/03/27 03:09:00;;;;;;;5.05;2.58;;;;;;;8.90;100.00;98408.19;5093834;28;20384;-74
2024/03/27 03:11:25;;;;;;;7.53;3.00;;;;;;;8.85;100.00;98407.13;5093944;28;20077;-74
2024/03/27 03:13:51;;;;;;;5.50;3.28;;;;;;;8.83;100.00;98408.13;5093985;28;20024;-74
2024/03/27 03:16:16;;;;;;;7.32;3.40;;;;;;;8.79;100.00;98400.72;5093876;28;20024;-75
2024/03/27 03:18:41;;;;;;;5.82;3.58;;;;;;;8.78;100.00;98407.88;5075979;28;20365;-74
2024/03/27 03:21:07;;;;;;;5.90;3.85;;;;;;;8.76;100.00;98404.59;5094547;28;20555;-75
2024/03/27 03:23:33;;;;;;;4.88;3.47;;;;;;;8.75;100.00;98412.72;5094673;28;20478;-75
2024/03/27 03:25:59;;;;;;;9.05;4.00;;;;;;;8.75;100.00;98412.72;5094379;28;20123;-75
2024/03/27 03:28:25;;;;;;;12.10;3.83;;;;;;;8.75;100.00;98416.19;5094400;28;20047;-76
2024/03/27 03:30:50;;;;;;;5.78;3.42;;;;;;;8.76;100.00;98415.19;5075497;28;20039;-74
2024/03/27 03:33:15;;;;;;;6.15;4.03;;;;;;;8.78;100.00;98450.28;5093197;28;20059;-75
2024/03/27 03:35:41;;;;;;;8.70;4.63;;;;;;;8.78;100.00;98458.25;5093297;28;20111;-74
2024/03/27 03:38:06;;;;;;;10.40;5.07;;;;;;;8.59;100.00;98454.34;5093224;28;20077;-75
2024/03/27 03:40:55;;;;;;;10.73;4.20;;;;;;;8.38;100.00;98460.34;5093267;28;20081;-73
2024/03/27 03:43:20;;;;;;;10.02;3.38;;;;;;;8.18;100.00;98465.38;5093144;28;20020;-74
2024/03/27 03:45:46;;;;;;;10.95;3.15;;;;;;;8.07;100.00;98456.03;5093533;28;20036;-74
2024/03/27 03:48:11;;;;;;;6.95;2.92;;;;;;;7.96;100.00;98464.44;5092919;28;20102;-75
2024/03/27 03:50:37;;;;;;;6.72;2.15;;;;;;;7.86;100.00;98466.50;5074801;28;20058;-74
2024/03/27 03:53:02;;;;;;;12.20;2.25;;;;;;;7.75;100.00;98467.78;5093002;28;20050;-74
2024/03/27 03:55:28;;;;;;;8.48;2.30;;;;;;;7.67;100.00;98473.13;5092994;28;20198;-74
2024/03/27 03:57:54;;;;;;;13.13;2.53;;;;;;;7.55;100.00;98470.91;5074882;28;20502;-75
2024/03/27 04:00:20;;;;;;;8.70;2.05;;;;;;;7.45;100.00;98466.84;5092906;28;20028;-74
2024/03/27 04:02:46;;;;;;;12.48;2.17;;;;;;;7.32;100.00;98476.19;5093025;28;20040;-75
2024/03/27 04:05:11;;;;;;;6.32;1.95;;;;;;;7.23;100.00;98483.34;5093451;28;20349;-75
2024/03/27 04:07:37;;;;;;;11.90;2.45;;;;;;;7.16;100.00;98471.81;5092933;28;20028;-75
2024/03/27 04:10:02;;;;;;;9.57;2.10;;;;;;;7.11;100.00;98476.00;5092908;28;20031;-75
2024/03/27 04:12:28;;;;;;;15.18;3.33;;;;;;;7.06;100.00;98484.44;5093032;28;20063;-75
2024/03/27 04:14:53;;;;;;;11.45;2.20;;;;;;;6.99;100.00;98478.22;5075780;28;20349;-76
2024/03/27 04:17:18;;;;;;;8.05;2.05;;;;;;;6.93;100.00;98471.00;5092792;28;20048;-76
2024/03/27 04:19:44;;;;;;;10.98;1.88;;;;;;;6.87;100.00;98467.22;5076973;28;20032;-76
2024/03/27 04:22:09;;;;;;;10.05;2.30;;;;;;;6.82;100.00;98458.97;5096924;28;20464;-75
2024/03/27 04:24:35;;;;;;;10.93;1.73;;;;;;;6.77;100.00;98462.13;5096644;28;20059;-75
2024/03/27 04:27:00;;;;;;;8.55;1.75;;;;;;;6.74;100.00;98461.66;5096740;28;20059;-75
2024/03/27 04:29:26;;;;;;;9.00;1.75;;;;;;;6.74;100.00;98446.63;5096742;28;20110;-74
2024/03/27 04:31:51;;;;;;;8.75;2.33;;;;;;;6.73;100.00;98444.97;5096684;28;20426;-74
2024/03/27 04:34:17;;;;;;;11.00;2.40;;;;;;;6.70;100.00;98432.94;5096493;28;20028;-76
2024/03/27 04:36:43;;;;;;;8.68;1.80;;;;;;;6.67;100.00;98430.63;5078368;28;20076;-75
2024/03/27 04:39:09;;;;;;;11.98;1.92;;;;;;;6.68;100.00;98439.38;5096895;28;20456;-75
2024/03/27 04:41:34;;;;;;;6.75;1.63;;;;;;;6.67;100.00;98440.38;5096343;28;20032;-75
2024/03/27 04:43:59;;;;;;;14.10;2.13;;;;;;;6.67;100.00;98450.94;5096331;28;20497;-76
2024/03/27 04:46:25;;;;;;;19.65;2.58;;;;;;;6.68;100.00;98457.88;5096223;28;20028;-75
2024/03/27 04:48:50;;;;;;;13.07;2.10;;;;;;;6.70;100.00;98467.28;5077938;28;20480;-76
2024/03/27 04:51:15;;;;;;;12.23;1.88;;;;;;;6.71;100.00;98476.03;5096080;28;20021;-75
2024/03/27 04:53:41;;;;;;;10.43;2.13;;;;;;;6.71;100.00;98474.19;5077844;28;20028;-75
2024/03/27 04:56:06;;;;;;;17.33;1.83;;;;;;;6.71;100.00;98478.69;5096144;28;20066;-76
2024/03/27 04:58:31;;;;;;;9.13;1.75;;;;;;;6.73;100.00;98483.78;5095982;28;20111;-75
2024/03/27 05:00:57;;;;;;;14.10;2.08;;;;;;;6.74;100.00;98490.72;5077806;28;20472;-75
2024/03/27 05:03:22;;;;;;;12.30;1.90;;;;;;;6.74;100.00;98485.44;5095744;28;20030;-75
2024/03/27 05:05:48;;;;;;;8.00;1.75;;;;;;;6.77;100.00;98500.97;5095852;28;20103;-77
2024/03/27 05:08:14;;;;;;;26.38;2.28;;;;;;;6.77;100.00;98508.88;5095776;28;20036;-76
2024/03/27 05:10:39;;;;;;;13.85;2.78;;;;;;;6.77;100.00;98501.78;5060951;28;20425;-76
2024/03/27 05:13:05;;;;;;;10.32;2.40;;;;;;;6.76;100.00;98502.75;5078058;28;20369;-75
2024/03/27 05:15:31;;;;;;;11.35;1.98;;;;;;;6.77;100.00;98512.34;5095898;28;20054;-75
2024/03/27 05:17:56;;;;;;;13.85;2.10;;;;;;;6.76;100.00;98528.38;5095388;28;20052;-76
2024/03/27 05:20:22;;;;;;;11.45;1.83;;;;;;;6.76;100.00;98517.81;5095569;28;20020;-76
2024/03/27 05:22:47;;;;;;;8.40;1.85;;;;;;;6.75;100.00;98517.00;5077509;28;20388;-76
2024/03/27 05:25:13;;;;;;;9.05;1.60;;;;;;;6.75;100.00;98516.13;5095879;28;20062;-76
2024/03/27 05:27:38;;;;;;;12.77;2.42;;;;;;;6.73;100.00;98512.84;5095766;28;20028;-76
2024/03/27 05:30:04;;;;;;;13.98;1.60;;;;;;;6.73;100.00;98513.66;5094870;28;20016;-75
2024/03/27 05:32:30;;;;;;;7.53;1.30;;;;;;;6.71;100.00;98508.56;5095147;28;20465;-76
2024/03/27 05:34:55;;;;;;;14.20;1.80;;;;;;;6.71;100.00;98505.91;5077713;28;20028;-75
2024/03/27 05:37:21;;;;;;;11.43;1.75;;;;;;;6.68;100.00;98508.91;5077239;28;20020;-76
2024/03/27 05:39:46;;;;;;;5.45;1.25;;;;;;;6.70;100.00;98496.38;5095440;28;20032;-75
2024/03/27 05:42:12;;;;;;;7.45;1.48;;;;;;;6.71;100.00;98505.91;5095145;28;20028;-75
2024/03/27 05:44:37;;;;;;;7.97;1.40;;;;;;;6.74;100.00;98509.22;5095036;28;20043;-75
2024/03/27 05:47:03;;;;;;;13.93;1.65;;;;;;;6.74;100.00;98530.38;5095664;28;20439;-75
2024/03/27 05:49:31;;;;;;;6.93;1.15;;;;;;;6.74;100.00;98533.03;5076913;28;20036;-76
2024/03/27 05:51:56;;;;;;;11.93;1.98;;;;;;;6.71;100.00;98519.13;5094996;28;20024;-76
2024/03/27 05:54:22;;;;;;;3.25;1.33;;;;;;;6.71;100.00;98511.19;5076867;28;20032;-75
2024/03/27 05:56:47;;;;;;;2.97;1.05;;;;;;;6.73;100.00;98510.22;5076701;28;20053;-75
2024/03/27 05:59:13;;;;;;;13.13;1.73;;;;;;;6.71;100.00;98498.00;5094826;28;20064;-75
2024/03/27 06:01:38;;;;;;;10.77;1.85;;;;;;;6.72;100.00;98514.69;5094750;28;20032;-75
2024/03/27 06:04:03;;;;;;;12.07;1.50;;;;;;;6.72;100.00;98506.75;5094793;28;20028;-75
2024/03/27 06:06:29;;;;;;;9.55;1.75;;;;;;;6.71;100.00;98511.19;5076579;28;20024;-75
2024/03/27 06:08:54;;;;;;;8.93;1.65;;;;;;;6.73;100.00;98523.44;5094567;28;20039;-75
2024/03/27 06:11:19;;;;;;;4.45;1.90;;;;;;;6.73;100.00;98532.16;5094753;28;20032;-76
2024/03/27 06:13:45;;;;;;;7.47;1.50;;;;;;;6.75;100.00;98554.00;5094516;28;20103;-75
2024/03/27 06:16:10;;;;;;;9.48;1.55;;;;;;;6.78;100.00;98561.56;5094493;28;20056;-75
2024/03/27 06:18:36;;;;;;;8.27;1.70;;;;;;;6.80;100.00;98564.84;5076191;28;20048;-75
2024/03/27 06:21:01;;;;;;;5.10;1.55;;;;;;;6.82;100.00;98548.81;5094508;28;20020;-74
2024/03/27 06:23:26;;;;;;;4.40;1.35;;;;;;;6.85;100.00;98559.91;5094987;28;20457;-76
2024/03/27 06:25:59;;;;;;;3.08;1.15;;;;;;;6.87;100.00;98580.88;5094179;28;20088;-73
2024/03/27 06:28:25;;;;;;;4.18;1.17;;;;;;;6.87;100.00;98584.34;5094240;28;20029;-74
2024/03/27 06:31:00;;;;;;;6.43;1.58;;;;;;;6.93;100.00;98587.31;5093980;28;20028;-75
2024/03/27 06:33:27;;;;;;;5.85;1.45;;;;;;;6.95;100.00;98580.84;5094201;28;20028;-73
2024/03/27 06:35:53;;;;;;;11.43;1.73;;;;;;;7.00;100.00;98572.38;5094023;28;20032;-74
2024/03/27 06:38:24;;;;;;;8.35;1.10;;;;;;;7.02;100.00;98571.22;5093862;28;20024;-74
2024/03/27 06:40:50;;;;;;;5.00;2.17;;;;;;;7.05;100.00;98568.25;5093923;28;20036;-75
2024/03/27 06:43:16;;;;;;;9.05;2.00;;;;;;;7.05;100.00;98560.31;5093956;28;20119;-74
2024/03/27 06:45:46;;;;;;;7.22;2.40;;;;;;;7.06;100.00;98579.63;5075739;28;20032;-76
2024/03/27 06:48:11;;;;;;;7.18;3.47;;;;;;;7.04;100.00;98579.81;5093895;28;20020;-74
2024/03/27 06:50:37;;;;;;;13.68;4.85;;;;;;;7.00;100.00;98577.69;5075352;28;20076;-74
2024/03/27 06:53:02;;;;;;;8.88;4.05;;;;;;;6.98;100.00;98587.59;5093623;28;20035;-75
2024/03/27 06:55:28;;;;;;;8.48;4.97;;;;;;;6.96;100.00;98590.44;5094323;28;20039;-75
2024/03/27 06:57:53;;;;;;;7.70;4.53;;;;;;;6.93;100.00;98588.13;5093902;28;20082;-73
2024/03/27 07:00:19;;;;;;;5.10;3.80;;;;;;;6.96;100.00;98590.44;5058894;28;20543;-77
2024/03/27 07:02:48;;;;;;;6.82;3.47;;;;;;;6.93;100.00;98577.56;5093893;28;20573;-74
2024/03/27 07:05:16;;;;;;;8.55;3.45;;;;;;;6.91;100.00;98584.00;5093321;28;20028;-74
2024/03/27 07:07:42;;;;;;;7.20;3.45;;;;;;;6.92;100.00;98588.28;5093185;28;20027;-75
2024/03/27 07:10:08;;;;;;;7.05;2.92;;;;;;;6.97;100.00;98593.88;5093539;28;20027;-75
2024/03/27 07:12:34;;;;;;;9.90;3.20;;;;;;;6.95;100.00;98601.97;5093624;28;20032;-75
2024/03/27 07:14:59;;;;;;;6.38;3.05;;;;;;;6.95;100.00;98606.47;5075790;28;20379;-77
2024/03/27 07:17:25;;;;;;;5.03;2.33;;;;;;;6.98;100.00;98600.81;5095029;28;20127;-76
2024/03/27 07:19:50;;;;;;;6.75;2.85;;;;;;;7.03;100.00;98607.25;5094669;28;20032;-75
2024/03/27 07:22:16;;;;;;;8.45;3.05;;;;;;;7.08;100.00;98614.69;5093491;28;20028;-76
2024/03/27 07:24:41;;;;;;;7.72;3.17;;;;;;;7.14;100.00;98608.69;5093198;28;20020;-74
2024/03/27 07:27:07;;;;;;;6.07;3.10;;;;;;;7.22;100.00;98613.13;5093307;28;20078;-76
2024/03/27 07:29:32;;;;;;;5.70;2.53;;;;;;;7.29;100.00;98611.44;5093211;28;20024;-76
2024/03/27 07:31:58;;;;;;;7.07;2.75;;;;;;;7.37;100.00;98621.97;5092698;28;20470;-75
2024/03/27 07:34:23;;;;;;;4.97;2.30;;;;;;;7.44;100.00;98623.97;5093558;28;20119;-77
2024/03/27 07:36:49;;;;;;;7.22;2.95;;;;;;;7.46;100.00;98632.53;5092756;28;20031;-76
2024/03/27 07:39:14;;;;;;;9.70;3.25;;;;;;;7.48;100.00;98639.31;5093260;28;20119;-74
2024/03/27 07:41:39;;;;;;;9.35;2.72;;;;;;;7.53;100.00;98650.19;5092719;28;20028;-75
2024/03/27 07:44:05;;;;;;;4.18;2.38;;;;;;;7.59;100.00;98649.50;5092678;28;20078;-74
2024/03/27 07:46:30;;;;;;;3.67;2.78;;;;;;;7.54;100.00;98658.97;5092708;28;20027;-76
2024/03/27 07:48:55;;;;;;;4.78;2.70;;;;;;;7.47;100.00;98660.66;5092948;28;20093;-75
2024/03/27 07:51:21;;;;;;;3.95;2.90;;;;;;;7.50;100.00;98653.19;5092623;28;20099;-75
2024/03/27 07:53:47;;;;;;;6.13;3.20;;;;;;;7.54;100.00;98654.50;5093181;28;20111;-75
2024/03/27 07:56:12;;;;;;;9.60;3.30;;;;;;;7.53;100.00;98652.03;5096829;28;20024;-78
2024/03/27 07:58:38;;;;;;;8.38;3.17;;;;;;;7.55;100.00;98661.44;5096970;28;20039;-75
2024/03/27 08:01:04;;;;;;;5.30;3.00;;;;;;;7.55;100.00;98664.09;5096730;28;20337;-74
2024/03/27 08:03:30;;;;;;;10.20;4.25;;;;;;;7.53;100.00;98658.13;5096760;28;20028;-75
2024/03/27 08:05:56;;;;;;;7.32;4.07;;;;;;;7.53;100.00;98647.53;5096933;28;20039;-76
2024/03/27 08:08:22;;;;;;;9.63;4.15;;;;;;;7.55;100.00;98655.31;5096677;28;20460;-75
2024/03/27 08:11:00;;;;;;;9.18;4.15;;;;;;;7.61;100.00;98653.81;5096567;28;20028;-75
2024/03/27 08:13:26;;;;;;;9.82;4.40;;;;;;;7.68;100.00;98646.81;5079048;28;20024;-75
2024/03/27 08:15:51;;;;;;;7.93;4.35;;;;;;;7.69;100.00;98656.41;5096793;28;20028;-75
2024/03/27 08:18:18;;;;;;;5.38;3.97;;;;;;;7.75;100.00;98663.66;5096427;28;20143;-74
2024/03/27 08:20:53;;;;;;;11.35;4.63;;;;;;;7.81;100.00;98670.06;5078206;28;20043;-74
2024/03/27 08:23:19;;;;;;;7.00;4.35;;;;;;;7.76;100.00;98671.44;5096471;28;20088;-77
2024/03/27 08:25:45;;;;;;;6.10;4.55;;;;;;;7.77;100.00;98669.59;5078825;28;20028;-74
2024/03/27 08:28:10;;;;;;;8.80;4.60;;;;;;;7.73;100.00;98665.63;5096251;28;20028;-76
2024/03/27 08:30:36;;;;;;;6.15;4.47;;;;;;;7.78;100.00;98660.66;5096149;28;20384;-77
2024/03/27 08:33:01;;;;;;;7.63;4.75;;;;;;;7.92;100.00;98664.38;5096226;28;20456;-76
2024/03/27 08:35:26;;;;;;;6.93;5.28;;;;;;;8.02;100.00;98664.16;5096865;28;20507;-76
2024/03/27 08:37:52;;;;;;;8.70;5.00;;;;;;;8.18;100.00;98656.09;5095786;28;20032;-74
2024/03/27 08:40:17;;;;;;;10.82;6.03;;;;;;;8.10;100.00;98664.91;5078801;28;20028;-74
2024/03/27 08:42:42;;;;;;;7.63;5.65;;;;;;;8.21;100.00;98654.91;5096218;28;20032;-75
2024/03/27 08:45:08;;;;;;;8.25;5.68;;;;;;;8.36;100.00;98662.91;5078037;28;20054;-76
2024/03/27 08:47:34;;;;;;;8.48;6.05;;;;;;;8.46;100.00;98660.88;5096288;28;20035;-76
2024/03/27 08:49:59;;;;;;;11.65;7.07;;;;;;;8.47;100.00;98671.28;5096066;28;20036;-75
2024/03/27 08:52:24;;;;;;;11.50;8.13;;;;;;;8.59;100.00;98684.13;5096050;28;20032;-75
2024/03/27 08:54:53;;;;;;;11.05;7.82;;;;;;;8.59;100.00;98668.22;5096426;28;20440;-76
2024/03/27 08:57:19;;;;;;;14.68;8.65;;;;;;;8.64;100.00;98681.75;5096055;28;20111;-74
2024/03/27 08:59:45;;;;;;;11.00;7.82;;;;;;;8.65;100.00;98688.72;5061223;28;20518;-74
2024/03/27 09:02:10;;;;;;;10.25;7.80;;;;;;;8.63;100.00;98677.47;5096090;28;20047;-77
2024/03/27 09:04:36;;;;;;;10.23;7.95;;;;;;;8.80;100.00;98689.56;5095537;28;20032;-75
2024/03/27 09:07:01;;;;;;;9.75;6.93;;;;;;;8.77;100.00;98684.63;5095810;28;20035;-73
2024/03/27 09:09:27;;;;;;;10.65;7.20;;;;;;;8.93;100.00;98690.78;5077802;28;20028;-75
2024/03/27 09:11:52;;;;;;;10.23;7.53;;;;;;;8.80;100.00;98700.16;5096207;28;20137;-74
2024/03/27 09:14:17;;;;;;;12.10;7.72;;;;;;;8.87;100.00;98694.97;5095626;28;20062;-74
2024/03/27 09:16:43;;;;;;;8.57;6.72;;;;;;;8.94;100.00;98705.69;5095553;28;20038;-75
2024/03/27 09:19:08;;;;;;;7.13;6.43;;;;;;;8.87;100.00;98713.53;5096250;28;20117;-75
2024/03/27 09:21:33;;;;;;;8.38;6.13;;;;;;;8.94;100.00;98710.97;5096170;28;20039;-77
2024/03/27 09:23:58;;;;;;;8.80;5.15;;;;;;;8.96;100.00;98709.81;5078026;28;20031;-74
2024/03/27 09:26:24;;;;;;;8.68;5.22;;;;;;;8.93;100.00;98707.50;5078292;28;20036;-75
2024/03/27 09:28:49;;;;;;;6.38;4.70;;;;;;;8.94;100.00;98711.81;5095856;28;20388;-75
2024/03/27 09:31:15;;;;;;;12.73;5.22;;;;;;;9.03;100.00;98707.25;5095346;28;20063;-76
2024/03/27 09:33:40;;;;;;;5.38;4.53;;;;;;;9.20;100.00;98707.09;5095757;28;20498;-75
2024/03/27 09:36:12;;;;;;;6.28;4.47;;;;;;;9.42;100.00;98718.63;5095327;28;20023;-75
2024/03/27 09:38:38;;;;;;;7.28;4.90;;;;;;;9.52;100.00;98717.34;5095162;28;20070;-74
2024/03/27 09:41:04;;;;;;;5.68;4.32;;;;;;;9.69;100.00;98722.47;5095229;28;20024;-78
2024/03/27 09:43:31;;;;;;;8.60;4.47;;;;;;;9.76;100.00;98714.56;5076963;28;20036;-76
2024/03/27 09:45:57;;;;;;;5.72;3.85;;;;;;;9.89;100.00;98710.22;5094963;28;20065;-75
2024/03/27 09:48:25;;;;;;;7.47;4.50;;;;;;;10.20;100.00;98710.97;5060371;28;20028;-77
2024/03/27 09:50:52;;;;;;;6.45;4.70;;;;;;;10.49;100.00;98712.72;5076922;28;20034;-75
2024/03/27 09:53:22;;;;;;;5.65;4.05;;;;;;;10.47;100.00;98716.59;5095479;28;20032;-75
2024/03/27 09:55:51;;;;;;;7.88;4.13;;;;;;;10.49;100.00;98726.00;5094998;28;20032;-74
2024/03/27 09:58:17;;;;;;;6.70;3.85;;;;;;;10.30;100.00;98719.47;5094916;28;20028;-74
2024/03/27 10:00:43;;;;;;;9.02;4.05;;;;;;;10.29;100.00;98715.16;5094774;28;20031;-75
2024/03/27 10:03:08;;;;;;;8.85;4.60;;;;;;;9.92;100.00;98727.63;5094835;28;20061;-75
2024/03/27 10:05:35;;;;;;;5.07;4.25;;;;;;;10.09;100.00;98725.59;5094939;28;20042;-75
2024/03/27 10:08:03;;;;;;;6.70;4.35;;;;;;;10.06;100.00;98725.94;5095087;28;20478;-75
2024/03/27 10:10:29;;;;;;;7.50;3.95;;;;;;;10.11;100.00;98720.91;5095240;28;20024;-75
2024/03/27 10:12:55;;;;;;;4.88;3.63;;;;;;;10.03;100.00;98724.50;5094578;28;20106;-76
2024/03/27 10:15:21;;;;;;;5.82;3.88;;;;;;;10.19;100.00;98725.28;5094593;28;20484;-76
2024/03/27 10:17:47;;;;;;;5.00;3.70;;;;;;;10.33;100.00;98721.78;5094002;28;20040;-76
2024/03/27 10:20:13;;;;;;;4.07;3.60;;;;;;;10.50;100.00;98740.97;5094550;28;20480;-76
2024/03/27 10:22:39;;;;;;;5.45;3.78;;;;;;;10.52;100.00;98738.91;5076593;28;20066;-75
2024/03/27 10:25:06;;;;;;;5.40;3.53;;;;;;;10.46;100.00;98749.50;5095212;28;20047;-76
2024/03/27 10:27:32;;;;;;;6.70;3.83;;;;;;;10.33;100.00;98748.38;5095553;28;20028;-75
2024/03/27 10:29:58;;;;;;;6.28;4.13;;;;;;;10.31;100.00;98757.50;5096120;28;20028;-76
2024/03/27 10:32:24;;;;;;;4.63;3.65;;;;;;;9.97;100.00;98764.25;5077703;28;20490;-75
2024/03/27 10:34:49;;;;;;;4.72;4.15;;;;;;;9.87;100.00;98768.03;5076718;28;20040;-79
2024/03/27 10:37:16;;;;;;;7.95;4.30;;;;;;;9.66;100.00;98768.78;5094033;28;20039;-75
2024/03/27 10:39:46;;;;;;;7.78;4.15;;;;;;;9.68;100.00;98757.97;5093829;28;20024;-75
2024/03/27 10:42:16;;;;;;;6.47;4.35;;;;;;;9.64;100.00;98765.50;5094041;28;20039;-74
2024/03/27 10:44:46;;;;;;;6.15;4.53;;;;;;;9.65;100.00;98787.56;5093743;28;20028;-75
2024/03/27 10:47:17;;;;;;;5.50;4.05;;;;;;;9.57;100.00;98777.84;5093638;28;20035;-74
2024/03/27 10:49:43;;;;;;;10.38;3.80;;;;;;;9.71;100.00;98765.56;5093732;28;20460;-75
2024/03/27 10:52:09;;;;;;;8.15;4.40;;;;;;;9.82;100.00;98758.97;5093351;28;20108;-75
2024/03/27 10:54:36;;;;;;;4.68;3.90;;;;;;;9.89;100.00;98744.75;5093957;28;20066;-75
2024/03/27 10:57:02;;;;;;;5.53;4.20;;;;;;;10.24;100.00;98746.81;5093348;28;20559;-75
2024/03/27 10:59:28;;;;;;;6.32;4.30;;;;;;;10.38;100.00;98753.94;5093437;28;20028;-75
2024/03/27 11:02:07;;;;;;;9.88;4.63;;;;;;;10.51;100.00;98760.38;5093344;28;20024;-75
2024/03/27 11:04:36;;;;;;;6.00;4.80;;;;;;;10.47;100.00;98746.66;5093815;28;20042;-76
2024/03/27 11:07:02;;;;;;;4.90;4.45;;;;;;;10.52;100.00;98752.22;5093543;28;20031;-74
2024/03/27 11:09:27;;;;;;;5.55;5.03;;;;;;;10.28;100.00;98740.09;5093239;28;20106;-75
2024/03/27 11:11:53;;;;;;;7.10;5.05;;;;;;;10.10;100.00;98727.22;5058239;28;20123;-75
2024/03/27 11:14:20;;;;;;;6.28;4.63;;;;;;;9.98;100.00;98728.72;5093165;28;20022;-75
2024/03/27 11:16:50;;;;;;;4.65;4.25;;;;;;;9.82;100.00;98725.28;5093154;28;20027;-74
2024/03/27 11:19:15;;;;;;;5.20;4.10;;;;;;;9.91;100.00;98735.78;5093094;28;20089;-75
2024/03/27 11:21:41;;;;;;;8.07;4.45;;;;;;;9.81;100.00;98744.88;5093120;28;20024;-75
2024/03/27 11:24:11;;;;;;;5.57;4.55;;;;;;;9.78;100.00;98736.44;5093004;28;20032;-73
2024/03/27 11:26:37;;;;;;;6.72;4.13;;;;;;;9.94;100.00;98743.38;5093288;28;20032;-73